sensor_id;sensor_type;location;lat;lon;timestamp;P1;P2;P0
76045;PMS7003;64741;41.730;44.788;2023-07-31T00:00:53;3.4;3;2.2
76045;PMS7003;64741;41.730;44.788;2023-07-31T00:05:59;4.2;3.6;2.6
76045;PMS7003;64741;41.730;44.788;2023-07-31T00:10:53;6.8;5.8;4.2
76045;PMS7003;64741;41.730;44.788;2023-07-31T00:15:55;11.8;10.6;7.6
76045;PMS7003;64741;41.730;44.788;2023-07-31T00:20:53;16;12.8;8.8
76045;PMS7003;64741;41.730;44.788;2023-07-31T00:25:41;15.6;12.6;8.2
76045;PMS7003;64741;41.730;44.788;2023-07-31T00:30:59;10;7.8;5.4
76045;PMS7003;64741;41.730;44.788;2023-07-31T00:35:55;9.2;8;5.6
76045;PMS7003;64741;41.730;44.788;2023-07-31T00:40:59;6.6;5.8;4.4
76045;PMS7003;64741;41.730;44.788;2023-07-31T00:45:53;6;4.6;3.2
76045;PMS7003;64741;41.730;44.788;2023-07-31T00:50:59;5;3.6;2.6
76045;PMS7003;64741;41.730;44.788;2023-07-31T00:55:53;4.2;3.4;2.8
76045;PMS7003;64741;41.730;44.788;2023-07-31T01:00:55;3.6;3.2;2.2
76045;PMS7003;64741;41.730;44.788;2023-07-31T01:05:53;3.2;2.2;1.6
76045;PMS7003;64741;41.730;44.788;2023-07-31T01:10:54;3;2.6;1.4
76045;PMS7003;64741;41.730;44.788;2023-07-31T01:15:55;2.8;2.4;1.6
76045;PMS7003;64741;41.730;44.788;2023-07-31T01:20:57;3.2;2.8;2.2
76045;PMS7003;64741;41.730;44.788;2023-07-31T01:26:00;3;2.6;1.8
76045;PMS7003;64741;41.730;44.788;2023-07-31T01:30:53;3.8;3.6;2.8
76045;PMS7003;64741;41.730;44.788;2023-07-31T01:35:59;4;3.4;2.2
76045;PMS7003;64741;41.730;44.788;2023-07-31T01:40:59;2.6;2;1
76045;PMS7003;64741;41.730;44.788;2023-07-31T01:45:53;2.8;2.6;1.8
76045;PMS7003;64741;41.730;44.788;2023-07-31T01:50:53;2.4;2;1.6
76045;PMS7003;64741;41.730;44.788;2023-07-31T01:55:55;3.4;3;2
76045;PMS7003;64741;41.730;44.788;2023-07-31T02:00:59;3;2.6;1.4
76045;PMS7003;64741;41.730;44.788;2023-07-31T02:05:53;2.6;2.4;1.6
76045;PMS7003;64741;41.730;44.788;2023-07-31T02:10:55;2.4;1.8;1
76045;PMS7003;64741;41.730;44.788;2023-07-31T02:15:59;3.8;3;2
76045;PMS7003;64741;41.730;44.788;2023-07-31T02:20:59;2.8;2.2;1.8
76045;PMS7003;64741;41.730;44.788;2023-07-31T02:25:53;3.4;2.6;1.8
76045;PMS7003;64741;41.730;44.788;2023-07-31T02:30:53;3.8;3;2
76045;PMS7003;64741;41.730;44.788;2023-07-31T02:35:53;3.8;3.2;2.2
76045;PMS7003;64741;41.730;44.788;2023-07-31T02:40:31;3.4;3.2;2
76045;PMS7003;64741;41.730;44.788;2023-07-31T02:45:55;3.6;3;2.6
76045;PMS7003;64741;41.730;44.788;2023-07-31T02:50:53;5;4.4;3.2
76045;PMS7003;64741;41.730;44.788;2023-07-31T02:55:55;4.4;4;3.6
76045;PMS7003;64741;41.730;44.788;2023-07-31T03:00:53;4;3.6;2.4
76045;PMS7003;64741;41.730;44.788;2023-07-31T03:05:53;3.4;2.8;2.2
76045;PMS7003;64741;41.730;44.788;2023-07-31T03:10:59;4.2;3.6;2.6
76045;PMS7003;64741;41.730;44.788;2023-07-31T03:15:53;3.4;3;2.2
76045;PMS7003;64741;41.730;44.788;2023-07-31T03:20:59;3.8;2.2;1.4
76045;PMS7003;64741;41.730;44.788;2023-07-31T03:25:56;3.2;2.8;1.8
76045;PMS7003;64741;41.730;44.788;2023-07-31T03:30:53;3.2;3;2.4
76045;PMS7003;64741;41.730;44.788;2023-07-31T03:35:53;5;3.6;2.6
76045;PMS7003;64741;41.730;44.788;2023-07-31T03:40:53;4;3.4;2.6
76045;PMS7003;64741;41.730;44.788;2023-07-31T03:45:55;3.2;2.6;2
76045;PMS7003;64741;41.730;44.788;2023-07-31T03:50:55;3;2.8;1.8
76045;PMS7003;64741;41.730;44.788;2023-07-31T03:55:55;3;2.6;2.2
76045;PMS7003;64741;41.730;44.788;2023-07-31T04:00:53;3;2.6;2
76045;PMS7003;64741;41.730;44.788;2023-07-31T04:05:55;3.8;2.4;1.8
76045;PMS7003;64741;41.730;44.788;2023-07-31T04:10:59;3.2;2.8;2.2
76045;PMS7003;64741;41.730;44.788;2023-07-31T04:15:59;3.8;3.4;2.6
76045;PMS7003;64741;41.730;44.788;2023-07-31T04:20:53;4;3.2;2.6
76045;PMS7003;64741;41.730;44.788;2023-07-31T04:25:53;5;4.3;3
76045;PMS7003;64741;41.730;44.788;2023-07-31T04:30:59;5.2;3.2;2.2
76045;PMS7003;64741;41.730;44.788;2023-07-31T04:35:53;3.8;3;2.6
76045;PMS7003;64741;41.730;44.788;2023-07-31T04:40:55;4.2;3.2;2.4
76045;PMS7003;64741;41.730;44.788;2023-07-31T04:45:39;5;4;2.8
76045;PMS7003;64741;41.730;44.788;2023-07-31T04:50:55;3;2.6;2.2
76045;PMS7003;64741;41.730;44.788;2023-07-31T04:55:59;4.2;3.6;2.4
76045;PMS7003;64741;41.730;44.788;2023-07-31T05:00:53;4.8;3.8;2.4
76045;PMS7003;64741;41.730;44.788;2023-07-31T05:05:57;3.2;2.6;2
76045;PMS7003;64741;41.730;44.788;2023-07-31T05:10:51;4.4;4;3.4
76045;PMS7003;64741;41.730;44.788;2023-07-31T05:15:57;4;3.2;2.4
76045;PMS7003;64741;41.730;44.788;2023-07-31T05:20:51;4.2;3.2;2.4
76045;PMS7003;64741;41.730;44.788;2023-07-31T05:25:39;3.4;3;2.4
76045;PMS7003;64741;41.730;44.788;2023-07-31T05:30:51;4.8;4;2.6
76045;PMS7003;64741;41.730;44.788;2023-07-31T05:35:51;4.4;3.2;2.8
76045;PMS7003;64741;41.730;44.788;2023-07-31T05:40:51;4.2;4;2.8
76045;PMS7003;64741;41.730;44.788;2023-07-31T05:45:53;4.6;3.8;2.8
76045;PMS7003;64741;41.730;44.788;2023-07-31T05:50:55;4.2;4.2;2.8
76045;PMS7003;64741;41.730;44.788;2023-07-31T05:55:51;5.2;4.4;3.4
76045;PMS7003;64741;41.730;44.788;2023-07-31T06:00:57;5.6;4.2;2.8
76045;PMS7003;64741;41.730;44.788;2023-07-31T06:05:43;4.4;3.6;3
76045;PMS7003;64741;41.730;44.788;2023-07-31T06:10:51;4.6;3.2;2
76045;PMS7003;64741;41.730;44.788;2023-07-31T06:15:51;5;4;2.6
76045;PMS7003;64741;41.730;44.788;2023-07-31T06:20:53;4;3.4;2.8
76045;PMS7003;64741;41.730;44.788;2023-07-31T06:25:53;4.6;3.8;2.8
76045;PMS7003;64741;41.730;44.788;2023-07-31T06:30:49;4;3.4;2.6
76045;PMS7003;64741;41.730;44.788;2023-07-31T06:35:53;4.8;3.4;2.6
76045;PMS7003;64741;41.730;44.788;2023-07-31T06:40:55;5;3.8;2.8
76045;PMS7003;64741;41.730;44.788;2023-07-31T06:45:55;4.8;4.6;3.6
76045;PMS7003;64741;41.730;44.788;2023-07-31T06:50:49;5.4;5.2;3.6
76045;PMS7003;64741;41.730;44.788;2023-07-31T06:55:49;4;3.4;2.6
76045;PMS7003;64741;41.730;44.788;2023-07-31T07:00:49;3.6;3;2.2
76045;PMS7003;64741;41.730;44.788;2023-07-31T07:05:49;3;3;2.2
76045;PMS7003;64741;41.730;44.788;2023-07-31T07:10:53;3.2;2.2;2
76045;PMS7003;64741;41.730;44.788;2023-07-31T07:15:49;4.6;3.6;2.8
76045;PMS7003;64741;41.730;44.788;2023-07-31T07:20:53;7;5.8;4.4
76045;PMS7003;64741;41.730;44.788;2023-07-31T07:25:49;26.8;23;17.8
76045;PMS7003;64741;41.730;44.788;2023-07-31T07:30:50;13.4;12;9
76045;PMS7003;64741;41.730;44.788;2023-07-31T07:35:51;12.6;10.4;8.2
76045;PMS7003;64741;41.730;44.788;2023-07-31T07:40:50;10.4;9.6;8
76045;PMS7003;64741;41.730;44.788;2023-07-31T07:45:41;8.4;6.4;5.4
76045;PMS7003;64741;41.730;44.788;2023-07-31T07:50:49;6.6;6;4.8
76045;PMS7003;64741;41.730;44.788;2023-07-31T07:55:49;5.4;4.4;3.4
76045;PMS7003;64741;41.730;44.788;2023-07-31T08:00:50;7.2;6;4.8
76045;PMS7003;64741;41.730;44.788;2023-07-31T08:05:49;7;5.2;4.2
76045;PMS7003;64741;41.730;44.788;2023-07-31T08:10:53;6;4.6;3.8
76045;PMS7003;64741;41.730;44.788;2023-07-31T08:15:53;4.6;3.6;2.8
76045;PMS7003;64741;41.730;44.788;2023-07-31T08:20:55;24.8;19.8;13.8
76045;PMS7003;64741;41.730;44.788;2023-07-31T08:25:49;57.6;44.2;29.6
76045;PMS7003;64741;41.730;44.788;2023-07-31T08:30:53;23.6;20;13.6
76045;PMS7003;64741;41.730;44.788;2023-07-31T08:35:39;11.4;10.6;8.2
76045;PMS7003;64741;41.730;44.788;2023-07-31T08:40:49;12.8;10.2;7.4
76045;PMS7003;64741;41.730;44.788;2023-07-31T08:45:49;9.6;8.2;6.2
76045;PMS7003;64741;41.730;44.788;2023-07-31T08:50:43;8.8;7.4;5.2
76045;PMS7003;64741;41.730;44.788;2023-07-31T08:55:53;8.6;7.8;6
76045;PMS7003;64741;41.730;44.788;2023-07-31T09:00:49;6.6;6;4.6
76045;PMS7003;64741;41.730;44.788;2023-07-31T09:05:53;4.8;4.2;3.4
76045;PMS7003;64741;41.730;44.788;2023-07-31T09:10:49;4.6;3.8;2.8
76045;PMS7003;64741;41.730;44.788;2023-07-31T09:15:53;4.8;4.6;3.4
76045;PMS7003;64741;41.730;44.788;2023-07-31T09:21:03;8.6;7.2;5.6
76045;PMS7003;64741;41.730;44.788;2023-07-31T09:25:53;8.3;7;5.3
76045;PMS7003;64741;41.730;44.788;2023-07-31T09:30:55;6;5.6;5
76045;PMS7003;64741;41.730;44.788;2023-07-31T09:35:49;4.8;4;2.8
76045;PMS7003;64741;41.730;44.788;2023-07-31T09:40:55;4;3.8;2.8
76045;PMS7003;64741;41.730;44.788;2023-07-31T09:45:56;4.2;3.4;2.8
76045;PMS7003;64741;41.730;44.788;2023-07-31T09:55:51;4.3;3.8;2.8
76045;PMS7003;64741;41.730;44.788;2023-07-31T10:00:51;8.2;6;4.4
76045;PMS7003;64741;41.730;44.788;2023-07-31T10:05:53;5.8;4;3
76045;PMS7003;64741;41.730;44.788;2023-07-31T10:10:37;5.6;4.8;3.4
76045;PMS7003;64741;41.730;44.788;2023-07-31T10:15:58;6;5.2;4.2
76045;PMS7003;64741;41.730;44.788;2023-07-31T10:20:51;6.6;5.4;4.4
76045;PMS7003;64741;41.730;44.788;2023-07-31T10:25:57;6.4;5;3.8
76045;PMS7003;64741;41.730;44.788;2023-07-31T10:30:57;5;4.2;3.2
76045;PMS7003;64741;41.730;44.788;2023-07-31T11:35:53;5.5;5.3;3.5
76045;PMS7003;64741;41.730;44.788;2023-07-31T11:40:51;6.6;5.4;4.2
76045;PMS7003;64741;41.730;44.788;2023-07-31T11:45:37;6.4;5.4;4.6
76045;PMS7003;64741;41.730;44.788;2023-07-31T11:50:51;7;5.8;3.8
76045;PMS7003;64741;41.730;44.788;2023-07-31T11:55:51;5;5;3.6
76045;PMS7003;64741;41.730;44.788;2023-07-31T12:00:57;6;5.8;4.2
76045;PMS7003;64741;41.730;44.788;2023-07-31T12:05:52;4.6;4.4;3.6
76045;PMS7003;64741;41.730;44.788;2023-07-31T12:11:02;4.4;4.2;3.2
76045;PMS7003;64741;41.730;44.788;2023-07-31T12:15:53;5.2;4.8;4
76045;PMS7003;64741;41.730;44.788;2023-07-31T12:20:45;4.8;3.6;3.2
76045;PMS7003;64741;41.730;44.788;2023-07-31T12:25:59;5.8;4.8;4
76045;PMS7003;64741;41.730;44.788;2023-07-31T12:30:45;5.8;4.8;3.6
76045;PMS7003;64741;41.730;44.788;2023-07-31T12:35:53;8.6;7;5.8
76045;PMS7003;64741;41.730;44.788;2023-07-31T12:40:39;14.2;12;9.8
76045;PMS7003;64741;41.730;44.788;2023-07-31T12:46:00;9.4;8.8;6.4
76045;PMS7003;64741;41.730;44.788;2023-07-31T12:50:53;6.6;6;4.4
76045;PMS7003;64741;41.730;44.788;2023-07-31T12:55:53;5.8;4.6;3.8
76045;PMS7003;64741;41.730;44.788;2023-07-31T13:00:59;5.2;4.8;3.8
76045;PMS7003;64741;41.730;44.788;2023-07-31T13:05:53;5.4;5;4.6
76045;PMS7003;64741;41.730;44.788;2023-07-31T13:10:53;5.6;5;4
76045;PMS7003;64741;41.730;44.788;2023-07-31T13:15:53;6.8;6;4.6
76045;PMS7003;64741;41.730;44.788;2023-07-31T13:20:53;5.6;5.2;3.6
76045;PMS7003;64741;41.730;44.788;2023-07-31T13:25:53;12.2;10;7.4
76045;PMS7003;64741;41.730;44.788;2023-07-31T13:30:53;34.8;27.4;19.4
76045;PMS7003;64741;41.730;44.788;2023-07-31T13:35:59;57;45.2;30.2
76045;PMS7003;64741;41.730;44.788;2023-07-31T13:40:59;68.6;54.8;36
76045;PMS7003;64741;41.730;44.788;2023-07-31T13:45:53;55;43.8;29.6
76045;PMS7003;64741;41.730;44.788;2023-07-31T13:50:51;40.2;34.2;24
76045;PMS7003;64741;41.730;44.788;2023-07-31T13:55:59;25;23.4;17
76045;PMS7003;64741;41.730;44.788;2023-07-31T14:00:53;15.6;15;11.4
76045;PMS7003;64741;41.730;44.788;2023-07-31T14:05:53;13.2;11.2;8.6
76045;PMS7003;64741;41.730;44.788;2023-07-31T14:10:53;9.8;8.6;6.2
76045;PMS7003;64741;41.730;44.788;2023-07-31T14:15:53;8.8;8.4;6.8
76045;PMS7003;64741;41.730;44.788;2023-07-31T14:20:59;6.2;5.4;4.2
76045;PMS7003;64741;41.730;44.788;2023-07-31T14:25:53;6.8;6;4.4
76045;PMS7003;64741;41.730;44.788;2023-07-31T14:30:59;6.8;5.6;4.4
76045;PMS7003;64741;41.730;44.788;2023-07-31T14:35:53;6.8;5.8;4.2
76045;PMS7003;64741;41.730;44.788;2023-07-31T14:40:59;7.4;6.4;4.8
76045;PMS7003;64741;41.730;44.788;2023-07-31T14:45:53;6.6;5.8;4.6
76045;PMS7003;64741;41.730;44.788;2023-07-31T14:50:59;6;4.8;4.2
76045;PMS7003;64741;41.730;44.788;2023-07-31T14:55:59;6.4;5;3.8
76045;PMS7003;64741;41.730;44.788;2023-07-31T15:00:53;4.2;4.2;3
76045;PMS7003;64741;41.730;44.788;2023-07-31T15:05:53;5.6;4.4;3.4
76045;PMS7003;64741;41.730;44.788;2023-07-31T15:10:54;6.4;5.6;3.8
76045;PMS7003;64741;41.730;44.788;2023-07-31T15:15:59;5;4.4;3.4
76045;PMS7003;64741;41.730;44.788;2023-07-31T15:20:53;5.2;4;3
76045;PMS7003;64741;41.730;44.788;2023-07-31T15:25:53;5;4.4;3
76045;PMS7003;64741;41.730;44.788;2023-07-31T15:30:59;5.4;4.4;2.8
76045;PMS7003;64741;41.730;44.788;2023-07-31T15:35:59;5;4;3
76045;PMS7003;64741;41.730;44.788;2023-07-31T15:40:53;4.4;3.2;2.4
76045;PMS7003;64741;41.730;44.788;2023-07-31T15:45:51;5;4.4;3.4
76045;PMS7003;64741;41.730;44.788;2023-07-31T15:50:53;5.8;5.4;4
76045;PMS7003;64741;41.730;44.788;2023-07-31T15:55:53;4.8;4.6;3.6
76045;PMS7003;64741;41.730;44.788;2023-07-31T16:00:45;6.2;4.8;4.4
76045;PMS7003;64741;41.730;44.788;2023-07-31T16:05:53;7.4;5.4;4.2
76045;PMS7003;64741;41.730;44.788;2023-07-31T16:10:53;6.6;5.8;4.6
76045;PMS7003;64741;41.730;44.788;2023-07-31T16:15:53;5.8;5.2;3.4
76045;PMS7003;64741;41.730;44.788;2023-07-31T16:20:53;5.4;4.4;3.6
76045;PMS7003;64741;41.730;44.788;2023-07-31T16:25:59;4.6;4.6;3.2
76045;PMS7003;64741;41.730;44.788;2023-07-31T16:30:53;6.2;5.6;4
76045;PMS7003;64741;41.730;44.788;2023-07-31T16:35:59;5.6;4.8;4.2
76045;PMS7003;64741;41.730;44.788;2023-07-31T16:40:53;5.4;5;3.4
76045;PMS7003;64741;41.730;44.788;2023-07-31T16:45:51;6.8;5.6;4
76045;PMS7003;64741;41.730;44.788;2023-07-31T16:50:51;6.2;5.8;4.6
76045;PMS7003;64741;41.730;44.788;2023-07-31T16:55:53;7.2;6.4;4.6
76045;PMS7003;64741;41.730;44.788;2023-07-31T17:00:53;7.2;6.2;5.2
76045;PMS7003;64741;41.730;44.788;2023-07-31T17:05:53;7.6;6.2;4.8
76045;PMS7003;64741;41.730;44.788;2023-07-31T17:10:59;9;7.8;5.6
76045;PMS7003;64741;41.730;44.788;2023-07-31T17:15:53;12.2;10;7.6
76045;PMS7003;64741;41.730;44.788;2023-07-31T17:20:35;9.8;8.6;6.6
76045;PMS7003;64741;41.730;44.788;2023-07-31T17:25:59;9;8;6.2
76045;PMS7003;64741;41.730;44.788;2023-07-31T17:30:53;9.3;8;5.5
76045;PMS7003;64741;41.730;44.788;2023-07-31T17:35:53;8.8;7.2;6
76045;PMS7003;64741;41.730;44.788;2023-07-31T17:40:53;9.2;8;5.6
76045;PMS7003;64741;41.730;44.788;2023-07-31T17:45:51;7.6;6.6;5.6
76045;PMS7003;64741;41.730;44.788;2023-07-31T17:50:53;8.6;7.8;6
76045;PMS7003;64741;41.730;44.788;2023-07-31T17:55:55;7.6;6.6;5.4
76045;PMS7003;64741;41.730;44.788;2023-07-31T18:01:01;8.8;8;5.6
76045;PMS7003;64741;41.730;44.788;2023-07-31T18:06:01;6.8;5.4;4
76045;PMS7003;64741;41.730;44.788;2023-07-31T18:10:55;8.2;7.8;6
76045;PMS7003;64741;41.730;44.788;2023-07-31T18:15:53;7.8;7.2;5.2
76045;PMS7003;64741;41.730;44.788;2023-07-31T18:21:01;9.2;8.2;6.2
76045;PMS7003;64741;41.730;44.788;2023-07-31T18:25:27;9.2;7.2;5.8
76045;PMS7003;64741;41.730;44.788;2023-07-31T18:30:56;5.2;5;3.8
76045;PMS7003;64741;41.730;44.788;2023-07-31T18:35:53;6.6;5.8;4.4
76045;PMS7003;64741;41.730;44.788;2023-07-31T18:40:55;6;5.4;4
76045;PMS7003;64741;41.730;44.788;2023-07-31T18:46:01;6.6;5.2;4
76045;PMS7003;64741;41.730;44.788;2023-07-31T18:50:55;5.2;4.2;3.2
76045;PMS7003;64741;41.730;44.788;2023-07-31T18:56:01;5.8;5.2;4
76045;PMS7003;64741;41.730;44.788;2023-07-31T19:00:55;6.6;6.2;5.2
76045;PMS7003;64741;41.730;44.788;2023-07-31T19:06:01;7;7;4.6
76045;PMS7003;64741;41.730;44.788;2023-07-31T19:10:53;5.4;4.8;3.6
76045;PMS7003;64741;41.730;44.788;2023-07-31T19:15:55;5.8;5.6;4.4
76045;PMS7003;64741;41.730;44.788;2023-07-31T19:20:53;6.8;5.6;4.2
76045;PMS7003;64741;41.730;44.788;2023-07-31T19:25:53;6;5;3.8
76045;PMS7003;64741;41.730;44.788;2023-07-31T19:30:55;5.8;5.6;4.6
76045;PMS7003;64741;41.730;44.788;2023-07-31T19:35:56;6.6;6.2;4.8
76045;PMS7003;64741;41.730;44.788;2023-07-31T19:41:01;7;5.8;4.2
76045;PMS7003;64741;41.730;44.788;2023-07-31T19:45:55;6.4;6.2;4.6
76045;PMS7003;64741;41.730;44.788;2023-07-31T19:50:45;6.4;5.4;4.2
76045;PMS7003;64741;41.730;44.788;2023-07-31T19:56:01;7.8;6.4;4.4
76045;PMS7003;64741;41.730;44.788;2023-07-31T20:00:52;7;6.4;4.8
76045;PMS7003;64741;41.730;44.788;2023-07-31T20:05:53;5.6;5.4;4.2
76045;PMS7003;64741;41.730;44.788;2023-07-31T20:10:55;8.6;6.8;5
76045;PMS7003;64741;41.730;44.788;2023-07-31T20:15:55;7.4;6.6;4.6
76045;PMS7003;64741;41.730;44.788;2023-07-31T20:20:55;9.2;7.2;5.2
76045;PMS7003;64741;41.730;44.788;2023-07-31T20:25:55;6.6;6;5
76045;PMS7003;64741;41.730;44.788;2023-07-31T20:30:53;6.6;6.2;4.8
76045;PMS7003;64741;41.730;44.788;2023-07-31T20:35:55;8;6.2;4.6
76045;PMS7003;64741;41.730;44.788;2023-07-31T20:45:37;6.3;5.3;3.7
76045;PMS7003;64741;41.730;44.788;2023-07-31T20:51:01;7;6.6;5.4
76045;PMS7003;64741;41.730;44.788;2023-07-31T20:55:55;5.2;5.2;4.2
76045;PMS7003;64741;41.730;44.788;2023-07-31T21:01:01;7.4;5.8;4.2
76045;PMS7003;64741;41.730;44.788;2023-07-31T21:05:53;9;6.8;4.8
76045;PMS7003;64741;41.730;44.788;2023-07-31T21:10:53;7.2;5.6;4.6
76045;PMS7003;64741;41.730;44.788;2023-07-31T21:15:56;5.8;5.4;4.2
76045;PMS7003;64741;41.730;44.788;2023-07-31T21:20:53;5.2;4.6;3.4
76045;PMS7003;64741;41.730;44.788;2023-07-31T21:25:55;5.2;5.2;3.6
76045;PMS7003;64741;41.730;44.788;2023-07-31T21:30:53;7.2;5.4;4.2
76045;PMS7003;64741;41.730;44.788;2023-07-31T21:36:01;5.4;5.2;4.2
76045;PMS7003;64741;41.730;44.788;2023-07-31T21:40:49;6.6;5.2;3.8
76045;PMS7003;64741;41.730;44.788;2023-07-31T21:45:53;5.4;4.8;3.6
76045;PMS7003;64741;41.730;44.788;2023-07-31T21:51:01;5.4;5.2;3.6
76045;PMS7003;64741;41.730;44.788;2023-07-31T21:55:53;6;5.4;3.4
76045;PMS7003;64741;41.730;44.788;2023-07-31T22:00:55;6;4.8;3.4
76045;PMS7003;64741;41.730;44.788;2023-07-31T22:05:55;5;4.2;2.8
76045;PMS7003;64741;41.730;44.788;2023-07-31T22:10:55;5.4;5.2;4
76045;PMS7003;64741;41.730;44.788;2023-07-31T22:15:53;5.2;4;3.2
76045;PMS7003;64741;41.730;44.788;2023-07-31T22:20:55;6.8;5.6;4.8
76045;PMS7003;64741;41.730;44.788;2023-07-31T22:26:01;5.2;4;3
76045;PMS7003;64741;41.730;44.788;2023-07-31T22:31:01;7.8;7.3;5.3
76045;PMS7003;64741;41.730;44.788;2023-07-31T22:35:55;8.6;7;5.4
76045;PMS7003;64741;41.730;44.788;2023-07-31T22:40:53;6.2;5.6;4.4
76045;PMS7003;64741;41.730;44.788;2023-07-31T22:46:01;5.6;4.6;4.2
76045;PMS7003;64741;41.730;44.788;2023-07-31T22:50:55;6.4;5;3.8
76045;PMS7003;64741;41.730;44.788;2023-07-31T22:55:55;8;5.8;4.2
76045;PMS7003;64741;41.730;44.788;2023-07-31T23:00:59;6.6;5.6;4.6
76045;PMS7003;64741;41.730;44.788;2023-07-31T23:05:55;6.4;5.8;4.8
76045;PMS7003;64741;41.730;44.788;2023-07-31T23:11:01;6.2;5.8;4.6
76045;PMS7003;64741;41.730;44.788;2023-07-31T23:15:55;6.2;5.2;4.4
76045;PMS7003;64741;41.730;44.788;2023-07-31T23:21:01;6.2;5.6;4
76045;PMS7003;64741;41.730;44.788;2023-07-31T23:25:52;6.6;6;4.6
76045;PMS7003;64741;41.730;44.788;2023-07-31T23:31:02;6.6;5.4;4.6
76045;PMS7003;64741;41.730;44.788;2023-07-31T23:35:53;6.2;6;5.2
76045;PMS7003;64741;41.730;44.788;2023-07-31T23:40:55;5.8;5.6;4.4
76045;PMS7003;64741;41.730;44.788;2023-07-31T23:45:55;5.2;4.8;4
76045;PMS7003;64741;41.730;44.788;2023-07-31T23:50:54;7.8;6.8;5
76045;PMS7003;64741;41.730;44.788;2023-07-31T23:55:24;6;5.4;4.6
